Time;durP1;ratioP1;P1;durP2;ratioP2;P2;SDS_P1;SDS_P2;PMS_P1;PMS_P2;Temp;Humidity;BMP_temperature;BMP_pressure;BME280_temperature;BME280_humidity;BME280_pressure;Samples;Min_cycle;Max_cycle;Signal;HPM_P1;HPM_P2
2022/09/30 00:01:24;;;;;;;1999.90;999.90;;;7.00;99.90;;;;;;5083934;28;20048;-66
2022/09/30 00:03:54;;;;;;;1999.90;999.90;;;7.00;99.90;;;;;;5090280;28;20079;-66
2022/09/30 00:06:21;;;;;;;1999.90;999.90;;;7.00;99.90;;;;;;5084040;28;20079;-65
2022/09/30 00:08:47;;;;;;;1999.90;999.90;;;7.00;99.90;;;;;;5087714;28;20046;-65
2022/09/30 00:11:16;;;;;;;1999.90;999.90;;;7.00;99.90;;;;;;5083043;28;20083;-66
2022/09/30 00:13:44;;;;;;;1999.90;999.90;;;7.00;99.90;;;;;;5086304;28;20067;-65
2022/09/30 00:16:11;;;;;;;1999.90;999.90;;;7.00;99.90;;;;;;5085057;28;20115;-65
2022/09/30 00:18:37;;;;;;;1999.90;999.90;;;7.00;99.90;;;;;;5077501;28;20068;-65
2022/09/30 00:21:04;;;;;;;1999.90;999.90;;;6.90;99.90;;;;;;5083823;28;20463;-65
2022/09/30 00:23:30;;;;;;;1999.90;999.90;;;6.90;99.90;;;;;;5087988;28;20047;-66
2022/09/30 00:26:10;;;;;;;1999.90;999.90;;;6.80;99.90;;;;;;5088183;28;20411;-65
2022/09/30 00:28:37;;;;;;;1999.90;999.90;;;6.80;99.90;;;;;;5081267;28;20039;-65
2022/09/30 00:31:06;;;;;;;1999.90;999.90;;;6.70;99.90;;;;;;5087432;28;20040;-65
2022/09/30 00:33:33;;;;;;;1999.90;999.90;;;6.70;99.90;;;;;;5082769;28;20429;-65
2022/09/30 00:35:59;;;;;;;1999.90;999.90;;;6.60;99.90;;;;;;5084629;28;20052;-65
2022/09/30 00:38:25;;;;;;;1999.90;999.90;;;6.60;99.90;;;;;;5086402;28;20392;-65
2022/09/30 00:40:52;;;;;;;1999.90;999.90;;;6.60;99.90;;;;;;5081853;28;20044;-65
2022/09/30 00:43:40;;;;;;;1999.90;999.90;;;6.50;99.90;;;;;;5087212;28;20055;-65
2022/09/30 00:46:18;;;;;;;1999.90;999.90;;;6.50;99.90;;;;;;5086317;28;20052;-66
2022/09/30 00:48:46;;;;;;;1999.90;999.90;;;6.50;99.90;;;;;;5083468;28;20040;-65
2022/09/30 00:51:12;;;;;;;1999.90;999.90;;;6.40;99.90;;;;;;5079611;28;20047;-65
2022/09/30 00:53:49;;;;;;;1999.90;999.90;;;6.40;99.90;;;;;;5084256;28;20043;-65
2022/09/30 00:56:23;;;;;;;1999.90;999.90;;;6.40;99.90;;;;;;5076679;28;20175;-65
2022/09/30 00:59:13;;;;;;;1999.90;999.90;;;6.30;99.90;;;;;;5086358;28;20043;-65
2022/09/30 01:01:40;;;;;;;1999.90;999.90;;;6.30;99.90;;;;;;5079302;28;20123;-65
2022/09/30 01:04:10;;;;;;;1999.90;999.90;;;6.20;99.90;;;;;;5081465;28;20060;-65
2022/09/30 01:06:36;;;;;;;1999.90;999.90;;;6.20;99.90;;;;;;5079947;28;20040;-65
2022/09/30 01:09:03;;;;;;;1999.90;999.90;;;6.20;99.90;;;;;;5079273;28;20409;-65
2022/09/30 01:11:30;;;;;;;1999.90;999.90;;;6.20;99.90;;;;;;5079518;28;20051;-65
2022/09/30 01:14:10;;;;;;;1999.90;999.90;;;6.20;99.90;;;;;;5077476;28;20128;-65
2022/09/30 01:17:09;;;;;;;1999.90;999.90;;;6.10;99.90;;;;;;5081027;28;20040;-65
2022/09/30 01:19:38;;;;;;;1999.90;999.90;;;6.10;99.90;;;;;;5077308;28;20523;-65
2022/09/30 01:22:09;;;;;;;1999.90;999.90;;;6.00;99.90;;;;;;5085658;28;20054;-65
2022/09/30 01:25:06;;;;;;;1999.90;999.90;;;6.00;99.90;;;;;;5079624;28;20048;-65
2022/09/30 01:27:38;;;;;;;1999.90;999.90;;;6.00;99.90;;;;;;5077145;28;20041;-65
2022/09/30 01:30:27;;;;;;;1999.90;999.90;;;6.00;99.90;;;;;;5074707;28;20516;-65
2022/09/30 01:33:04;;;;;;;1999.90;999.90;;;6.00;99.90;;;;;;5063951;28;20113;-65
2022/09/30 01:35:55;;;;;;;1999.90;999.90;;;6.10;99.90;;;;;;5077173;28;20400;-65
2022/09/30 01:38:23;;;;;;;1999.90;999.90;;;6.10;99.90;;;;;;5082512;28;20051;-65
2022/09/30 01:40:56;;;;;;;1999.90;999.90;;;6.10;99.90;;;;;;5085849;28;20039;-65
2022/09/30 01:43:37;;;;;;;1999.90;999.90;;;6.00;99.90;;;;;;5077461;28;20129;-65
2022/09/30 01:46:19;;;;;;;1999.90;999.90;;;5.90;99.90;;;;;;5093008;28;20056;-65
2022/09/30 01:48:59;;;;;;;1999.90;999.90;;;5.90;99.90;;;;;;5086814;28;20048;-65
2022/09/30 01:51:38;;;;;;;1999.90;999.90;;;5.80;99.90;;;;;;5085681;28;20561;-65
2022/09/30 01:54:20;;;;;;;1999.90;999.90;;;5.80;99.90;;;;;;5081729;28;20043;-66
2022/09/30 01:56:53;;;;;;;1999.90;999.90;;;5.80;99.90;;;;;;5086806;28;20263;-65
2022/09/30 01:59:44;;;;;;;1999.90;999.90;;;5.70;99.90;;;;;;5082528;28;20043;-65
2022/09/30 02:02:18;;;;;;;1999.90;999.90;;;5.70;99.90;;;;;;5090634;28;20036;-65
2022/09/30 02:05:06;;;;;;;1999.90;999.90;;;5.70;99.90;;;;;;5089298;28;20036;-65
2022/09/30 02:07:45;;;;;;;1999.90;999.90;;;5.70;99.90;;;;;;5080492;28;20071;-65
2022/09/30 02:10:34;;;;;;;1999.90;999.90;;;5.60;99.90;;;;;;5083813;28;20113;-66
2022/09/30 02:13:10;;;;;;;1999.90;999.90;;;5.60;99.90;;;;;;5082038;28;20447;-65
2022/09/30 02:15:41;;;;;;;1999.90;999.90;;;5.60;99.90;;;;;;5087219;28;20044;-65
2022/09/30 02:18:34;;;;;;;1999.90;999.90;;;5.50;99.90;;;;;;5094293;28;20053;-65
2022/09/30 02:21:02;;;;;;;1999.90;999.90;;;5.50;99.90;;;;;;5081044;28;20395;-65
2022/09/30 02:23:34;;;;;;;1999.90;999.90;;;5.50;99.90;;;;;;5088688;28;20043;-65
2022/09/30 02:26:09;;;;;;;1999.90;999.90;;;5.40;99.90;;;;;;5085805;28;20047;-65
2022/09/30 02:28:41;;;;;;;1999.90;999.90;;;5.40;99.90;;;;;;5086995;28;20035;-65
2022/09/30 02:31:09;;;;;;;1999.90;999.90;;;5.40;99.90;;;;;;5092621;28;20493;-65
2022/09/30 02:33:57;;;;;;;1999.90;999.90;;;5.30;99.90;;;;;;5085877;28;20042;-65
2022/09/30 02:36:41;;;;;;;1999.90;999.90;;;5.30;99.90;;;;;;5085944;28;20686;-65
2022/09/30 02:39:18;;;;;;;1999.90;999.90;;;5.30;99.90;;;;;;5082563;28;20043;-65
2022/09/30 02:41:48;;;;;;;1999.90;999.90;;;5.20;99.90;;;;;;5086515;28;20040;-65
2022/09/30 02:44:15;;;;;;;1999.90;999.90;;;5.20;99.90;;;;;;5085178;28;20060;-65
2022/09/30 02:47:08;;;;;;;1999.90;999.90;;;5.20;99.90;;;;;;5076527;28;20405;-65
2022/09/30 02:49:58;;;;;;;1999.90;999.90;;;5.20;99.90;;;;;;5075943;28;20123;-65
2022/09/30 02:52:34;;;;;;;1999.90;999.90;;;5.10;99.90;;;;;;5084285;28;20377;-65
2022/09/30 02:55:34;;;;;;;1999.90;999.90;;;5.10;99.90;;;;;;5076564;28;20048;-65
2022/09/30 02:58:18;;;;;;;1999.90;999.90;;;5.10;99.90;;;;;;5080095;28;20085;-65
2022/09/30 03:00:44;;;;;;;1999.90;999.90;;;5.10;99.90;;;;;;5070325;28;20040;-65
2022/09/30 03:03:15;;;;;;;1999.90;999.90;;;5.10;99.90;;;;;;5079651;28;20040;-65
2022/09/30 03:05:41;;;;;;;1999.90;999.90;;;5.10;99.90;;;;;;5087208;28;20044;-65
2022/09/30 03:08:07;;;;;;;1999.90;999.90;;;5.20;99.90;;;;;;5079011;28;20039;-65
2022/09/30 03:10:33;;;;;;;1999.90;999.90;;;5.40;99.90;;;;;;5085862;28;20066;-65
2022/09/30 03:13:23;;;;;;;1999.90;999.90;;;5.50;99.90;;;;;;5085666;28;20123;-65
2022/09/30 03:16:20;;;;;;;1999.90;999.90;;;5.60;99.90;;;;;;5073896;28;20402;-65
2022/09/30 03:19:42;;;;;;;1999.90;999.90;;;5.70;99.90;;;;;;5083353;28;20036;-66
2022/09/30 03:22:45;;;;;;;1999.90;999.90;;;5.70;99.90;;;;;;5044491;28;20059;-65
2022/09/30 03:25:36;;;;;;;1999.90;999.90;;;5.70;99.90;;;;;;5079559;28;20052;-65
2022/09/30 03:28:21;;;;;;;1999.90;999.90;;;5.70;99.90;;;;;;5094827;28;20665;-65
2022/09/30 03:31:04;;;;;;;1999.90;999.90;;;5.60;99.90;;;;;;5089700;28;20043;-65
2022/09/30 03:33:46;;;;;;;1999.90;999.90;;;5.60;99.90;;;;;;5089536;28;20093;-65
2022/09/30 03:36:23;;;;;;;1999.90;999.90;;;5.60;99.90;;;;;;5082261;28;20040;-65
2022/09/30 03:39:11;;;;;;;1999.90;999.90;;;5.60;99.90;;;;;;5089826;28;20552;-65
2022/09/30 03:41:56;;;;;;;1999.90;999.90;;;5.60;99.90;;;;;;5065411;28;20443;-65
2022/09/30 03:44:33;;;;;;;1999.90;999.90;;;5.60;99.90;;;;;;5095566;27;20139;-65
2022/09/30 03:47:10;;;;;;;1999.90;999.90;;;5.60;99.90;;;;;;5087845;28;20056;-65
2022/09/30 03:49:40;;;;;;;1999.90;999.90;;;5.60;99.90;;;;;;5108757;27;20397;-65
2022/09/30 03:52:08;;;;;;;1999.90;999.90;;;5.50;99.90;;;;;;5111103;27;20040;-65
2022/09/30 03:54:43;;;;;;;1999.90;999.90;;;5.50;99.90;;;;;;5094243;28;20047;-65
2022/09/30 03:57:09;;;;;;;1999.90;999.90;;;5.50;99.90;;;;;;5103913;27;20182;-65
2022/09/30 03:59:34;;;;;;;1999.90;999.90;;;5.40;99.90;;;;;;5106567;27;20031;-65
2022/09/30 04:02:01;;;;;;;1999.90;999.90;;;5.30;99.90;;;;;;5109554;27;20500;-65
2022/09/30 04:04:26;;;;;;;1999.90;999.90;;;5.30;99.90;;;;;;5113990;27;20043;-65
2022/09/30 04:06:52;;;;;;;1999.90;999.90;;;5.30;99.90;;;;;;5105546;28;20115;-65
2022/09/30 04:09:17;;;;;;;1999.90;999.90;;;5.30;99.90;;;;;;5083500;28;20210;-65
2022/09/30 04:11:43;;;;;;;1999.90;999.90;;;5.20;99.90;;;;;;5087597;28;20036;-65
2022/09/30 04:14:09;;;;;;;1999.90;999.90;;;5.10;99.90;;;;;;5098764;27;20054;-65
2022/09/30 04:16:34;;;;;;;1999.90;999.90;;;5.10;99.90;;;;;;5094849;28;20055;-65
2022/09/30 04:19:00;;;;;;;1999.90;999.90;;;5.10;99.90;;;;;;5102492;28;20103;-65
2022/09/30 04:21:27;;;;;;;1999.90;999.90;;;5.00;99.90;;;;;;5105308;27;20148;-65
2022/09/30 04:23:54;;;;;;;1999.90;999.90;;;5.10;99.90;;;;;;5099502;27;20087;-66
2022/09/30 04:26:19;;;;;;;1999.90;999.90;;;5.00;99.90;;;;;;5086190;28;20497;-65
2022/09/30 04:28:45;;;;;;;1999.90;999.90;;;5.00;99.90;;;;;;5083782;28;20047;-65
2022/09/30 04:31:12;;;;;;;1999.90;999.90;;;5.10;99.90;;;;;;5101945;27;20374;-65
2022/09/30 04:33:38;;;;;;;1999.90;999.90;;;5.00;99.90;;;;;;5102536;28;20089;-65
2022/09/30 04:36:05;;;;;;;1999.90;999.90;;;5.10;99.90;;;;;;5104422;27;20035;-65
2022/09/30 04:38:31;;;;;;;1999.90;999.90;;;5.10;99.90;;;;;;5073279;27;20047;-65
2022/09/30 04:40:56;;;;;;;1999.90;999.90;;;5.10;99.90;;;;;;5094359;28;20035;-65
2022/09/30 04:43:23;;;;;;;1999.90;999.90;;;5.10;99.90;;;;;;5094727;28;20035;-65
2022/09/30 04:45:51;;;;;;;1999.90;999.90;;;5.10;99.90;;;;;;5101593;28;20048;-65
2022/09/30 04:48:17;;;;;;;1999.90;999.90;;;5.00;99.90;;;;;;5089285;28;20602;-65
2022/09/30 04:50:43;;;;;;;1999.90;999.90;;;5.00;99.90;;;;;;5101052;27;20043;-65
2022/09/30 04:53:11;;;;;;;1999.90;999.90;;;5.10;99.90;;;;;;5097406;28;20047;-65
2022/09/30 04:55:36;;;;;;;1999.90;999.90;;;5.10;99.90;;;;;;5068467;27;20036;-65
2022/09/30 04:58:03;;;;;;;1999.90;999.90;;;5.00;99.90;;;;;;5070946;28;20043;-65
2022/09/30 05:00:29;;;;;;;1999.90;999.90;;;5.00;99.90;;;;;;5088174;27;20422;-65
2022/09/30 05:02:54;;;;;;;1999.90;999.90;;;4.90;99.90;;;;;;5113384;27;20063;-65
2022/09/30 05:05:20;;;;;;;1999.90;999.90;;;4.90;99.90;;;;;;5093478;28;20036;-65
2022/09/30 05:07:46;;;;;;;1999.90;999.90;;;4.90;99.90;;;;;;5103269;27;20043;-65
2022/09/30 05:10:12;;;;;;;1999.90;999.90;;;5.00;99.90;;;;;;5086034;28;20039;-65
2022/09/30 05:12:39;;;;;;;1999.90;999.90;;;5.00;99.90;;;;;;5085466;28;20407;-65
2022/09/30 05:15:06;;;;;;;1999.90;999.90;;;5.00;99.90;;;;;;5110771;27;20115;-65
2022/09/30 05:17:32;;;;;;;1999.90;999.90;;;5.00;99.90;;;;;;5099637;27;20119;-65
2022/09/30 05:19:58;;;;;;;1999.90;999.90;;;5.10;99.90;;;;;;5109986;27;20121;-65
2022/09/30 05:22:24;;;;;;;1999.90;999.90;;;5.10;99.90;;;;;;5098949;28;20040;-65
2022/09/30 05:24:51;;;;;;;1999.90;999.90;;;5.10;99.90;;;;;;5096130;27;20055;-65
2022/09/30 05:27:17;;;;;;;1999.90;999.90;;;5.00;99.90;;;;;;5072845;28;20416;-65
2022/09/30 05:29:43;;;;;;;1999.90;999.90;;;5.00;99.90;;;;;;5108274;27;20051;-65
2022/09/30 05:32:09;;;;;;;1999.90;999.90;;;5.00;99.90;;;;;;5095212;27;20420;-65
2022/09/30 05:34:36;;;;;;;1999.90;999.90;;;5.10;99.90;;;;;;5084313;28;20039;-65
2022/09/30 05:37:01;;;;;;;1999.90;999.90;;;5.10;99.90;;;;;;5083537;28;20090;-65
2022/09/30 05:39:27;;;;;;;1999.90;999.90;;;5.10;99.90;;;;;;5087864;28;20496;-65
2022/09/30 05:41:56;;;;;;;1999.90;999.90;;;5.10;99.90;;;;;;5096726;28;20063;-65
2022/09/30 05:44:21;;;;;;;1999.90;999.90;;;5.10;99.90;;;;;;5106580;27;20059;-65
2022/09/30 05:46:47;;;;;;;1999.90;999.90;;;5.10;99.90;;;;;;5105636;27;20054;-65
2022/09/30 05:49:12;;;;;;;1999.90;999.90;;;5.10;99.90;;;;;;5107911;27;20366;-65
2022/09/30 05:51:38;;;;;;;1999.90;999.90;;;5.10;99.90;;;;;;5092940;28;20070;-66
2022/09/30 05:54:03;;;;;;;1999.90;999.90;;;5.10;99.90;;;;;;5106463;28;20039;-65
2022/09/30 05:56:29;;;;;;;1999.90;999.90;;;5.10;99.90;;;;;;5088816;28;20044;-65
2022/09/30 05:58:54;;;;;;;1999.90;999.90;;;5.20;99.90;;;;;;5104313;28;20035;-65
2022/09/30 06:01:20;;;;;;;1999.90;999.90;;;5.20;99.90;;;;;;5091203;28;20043;-65
2022/09/30 06:03:46;;;;;;;1999.90;999.90;;;5.20;99.90;;;;;;5108236;28;20035;-65
2022/09/30 06:06:14;;;;;;;1999.90;999.90;;;5.20;99.90;;;;;;5109678;27;20460;-65
2022/09/30 06:08:40;;;;;;;1999.90;999.90;;;5.30;99.90;;;;;;5123299;27;20039;-65
2022/09/30 06:11:11;;;;;;;1999.90;999.90;;;5.30;99.90;;;;;;5075025;28;20046;-65
2022/09/30 06:13:38;;;;;;;1999.90;999.90;;;5.30;99.90;;;;;;5088324;28;20036;-65
2022/09/30 06:16:05;;;;;;;1999.90;999.90;;;5.20;99.90;;;;;;5109219;27;20039;-65
2022/09/30 06:18:30;;;;;;;1999.90;999.90;;;5.20;99.90;;;;;;5094602;28;20554;-65
2022/09/30 06:20:57;;;;;;;1999.90;999.90;;;5.20;99.90;;;;;;5104606;27;20019;-65
2022/09/30 06:23:24;;;;;;;1999.90;999.90;;;5.20;99.90;;;;;;5112964;27;20041;-65
2022/09/30 06:25:53;;;;;;;1999.90;999.90;;;5.30;99.90;;;;;;5107559;28;20032;-65
2022/09/30 06:28:19;;;;;;;1999.90;999.90;;;5.30;99.90;;;;;;5107038;28;20053;-65
2022/09/30 06:30:45;;;;;;;1999.90;999.90;;;5.40;99.90;;;;;;5090728;28;20054;-65
2022/09/30 06:33:12;;;;;;;1999.90;999.90;;;5.40;99.90;;;;;;5088340;28;20047;-65
2022/09/30 06:35:40;;;;;;;1999.90;999.90;;;5.50;99.90;;;;;;5082493;28;20565;-65
2022/09/30 06:38:06;;;;;;;1999.90;999.90;;;5.50;99.90;;;;;;5116910;28;20438;-65
2022/09/30 06:40:32;;;;;;;1999.90;999.90;;;5.60;99.90;;;;;;5113675;28;20366;-65
2022/09/30 06:42:58;;;;;;;1999.90;999.90;;;5.60;99.90;;;;;;5109889;28;20115;-65
2022/09/30 06:45:25;;;;;;;1999.90;999.90;;;5.80;99.90;;;;;;5106183;28;20056;-65
2022/09/30 06:47:56;;;;;;;1999.90;999.90;;;5.90;99.90;;;;;;5114360;28;20059;-65
2022/09/30 06:50:21;;;;;;;1999.90;999.90;;;6.10;99.90;;;;;;5090182;28;20583;-65
2022/09/30 06:52:47;;;;;;;1999.90;999.90;;;6.30;99.90;;;;;;5087853;28;20055;-65
2022/09/30 06:55:13;;;;;;;1999.90;999.90;;;6.60;99.90;;;;;;5094510;28;20557;-65
2022/09/30 06:57:40;;;;;;;1999.90;999.90;;;6.70;99.90;;;;;;5107594;27;20051;-65
2022/09/30 07:00:06;;;;;;;1999.90;999.90;;;6.90;99.90;;;;;;5105645;27;20376;-65
2022/09/30 07:02:33;;;;;;;1999.90;999.90;;;7.10;99.90;;;;;;5099611;28;20061;-66
2022/09/30 07:04:59;;;;;;;1999.90;999.90;;;7.20;99.90;;;;;;5089169;28;20044;-65
2022/09/30 07:07:24;;;;;;;1999.90;999.90;;;7.40;99.90;;;;;;5088685;28;20040;-65
2022/09/30 07:09:50;;;;;;;1999.90;999.90;;;7.60;99.90;;;;;;5100281;27;20508;-65
2022/09/30 07:12:16;;;;;;;1999.90;999.90;;;7.70;99.90;;;;;;5077222;27;20039;-65
2022/09/30 07:14:41;;;;;;;1999.90;999.90;;;7.70;99.90;;;;;;5096663;27;20031;-66
2022/09/30 07:17:07;;;;;;;1999.90;999.90;;;7.80;99.90;;;;;;5093163;27;20071;-66
2022/09/30 07:19:34;;;;;;;1999.90;999.90;;;8.10;99.90;;;;;;5104514;28;20046;-65
2022/09/30 07:22:26;;;;;;;1999.90;999.90;;;8.60;99.90;;;;;;5095621;28;20048;-66
2022/09/30 07:24:46;;;;;;;1999.90;999.90;;;8.90;99.90;;;;;;5107769;28;20494;-65
2022/09/30 07:27:12;;;;;;;1999.90;999.90;;;8.90;99.90;;;;;;5095464;28;20134;-65
2022/09/30 07:29:39;;;;;;;1999.90;999.90;;;8.90;99.90;;;;;;5092705;28;20067;-66
2022/09/30 07:32:06;;;;;;;1999.90;999.90;;;8.80;99.90;;;;;;5077758;27;20456;-66
2022/09/30 07:34:31;;;;;;;1999.90;999.90;;;8.80;99.90;;;;;;5102618;27;20438;-65
2022/09/30 07:36:57;;;;;;;1999.90;999.90;;;8.90;99.90;;;;;;5101340;28;20045;-65
2022/09/30 07:39:23;;;;;;;1999.90;999.90;;;8.90;99.90;;;;;;5090743;28;20400;-66
2022/09/30 07:41:49;;;;;;;1999.90;999.90;;;9.00;99.90;;;;;;5100218;28;20097;-65
2022/09/30 07:44:15;;;;;;;1999.90;999.90;;;9.00;99.90;;;;;;5100644;27;20461;-65
2022/09/30 07:46:42;;;;;;;1999.90;999.90;;;9.10;99.90;;;;;;5110959;27;20124;-66
2022/09/30 07:49:13;;;;;;;1999.90;999.90;;;9.20;99.90;;;;;;5091573;28;20040;-66
2022/09/30 07:51:42;;;;;;;1999.90;999.90;;;9.30;99.90;;;;;;5082656;28;20054;-66
2022/09/30 07:54:12;;;;;;;1999.90;999.90;;;9.40;99.90;;;;;;5090459;28;20083;-66
2022/09/30 07:56:38;;;;;;;1999.90;999.90;;;9.40;99.90;;;;;;5105317;28;20056;-65
2022/09/30 07:59:05;;;;;;;1999.90;999.90;;;9.40;99.90;;;;;;5103388;27;20035;-65
2022/09/30 08:01:31;;;;;;;1999.90;999.90;;;9.50;99.90;;;;;;5097935;28;20039;-65
2022/09/30 08:03:59;;;;;;;1999.90;999.90;;;9.50;99.90;;;;;;5099941;28;20073;-65
2022/09/30 08:06:26;;;;;;;1999.90;999.90;;;9.50;99.90;;;;;;5101037;28;20044;-65
2022/09/30 08:08:54;;;;;;;1999.90;999.90;;;9.60;99.90;;;;;;5109412;28;20046;-66
2022/09/30 08:11:20;;;;;;;1999.90;999.90;;;9.70;99.90;;;;;;5089239;28;20044;-65
2022/09/30 08:13:54;;;;;;;1999.90;999.90;;;9.80;99.90;;;;;;5088578;28;20043;-66
2022/09/30 08:16:20;;;;;;;1999.90;999.90;;;9.90;99.90;;;;;;5099224;28;20036;-66
2022/09/30 08:18:46;;;;;;;1999.90;999.90;;;10.00;99.90;;;;;;5089607;28;20084;-66
2022/09/30 08:21:12;;;;;;;1999.90;999.90;;;10.10;99.90;;;;;;5100129;28;20039;-66
2022/09/30 08:23:38;;;;;;;1999.90;999.90;;;10.40;99.90;;;;;;5103948;27;20043;-66
2022/09/30 08:26:09;;;;;;;1999.90;999.90;;;10.50;99.90;;;;;;5105523;27;20047;-66
2022/09/30 08:28:36;;;;;;;1999.90;999.90;;;10.60;99.90;;;;;;5105064;28;20036;-65
2022/09/30 08:31:22;;;;;;;1999.90;999.90;;;10.70;99.90;;;;;;5107116;28;20039;-66
2022/09/30 08:33:49;;;;;;;1999.90;999.90;;;10.80;99.90;;;;;;5102406;27;20112;-66
2022/09/30 08:36:17;;;;;;;1999.90;999.90;;;10.90;99.90;;;;;;5074445;28;20096;-66
2022/09/30 08:38:43;;;;;;;1999.90;999.90;;;10.90;99.90;;;;;;5107536;28;20473;-66
2022/09/30 08:41:33;;;;;;;1999.90;999.90;;;11.00;99.90;;;;;;5109354;28;20093;-66
2022/09/30 08:44:18;;;;;;;1999.90;999.90;;;11.10;99.90;;;;;;5108434;28;20055;-66
2022/09/30 08:46:54;;;;;;;1999.90;999.90;;;11.10;99.90;;;;;;5097868;27;20043;-66
2022/09/30 08:49:28;;;;;;;1999.90;999.90;;;11.20;99.90;;;;;;5107440;28;20067;-66
2022/09/30 08:51:56;;;;;;;1999.90;999.90;;;11.30;99.90;;;;;;5083937;28;20087;-66
2022/09/30 08:54:28;;;;;;;1999.90;999.90;;;11.40;99.90;;;;;;5093089;27;20100;-66
2022/09/30 08:56:54;;;;;;;1999.90;999.90;;;11.50;99.90;;;;;;5102340;27;20447;-66
2022/09/30 08:59:37;;;;;;;1999.90;999.90;;;11.60;99.90;;;;;;5114333;27;20051;-66
2022/09/30 09:02:26;;;;;;;1999.90;999.90;;;11.80;99.90;;;;;;5098560;28;20078;-66
2022/09/30 09:04:56;;;;;;;1999.90;999.90;;;12.00;99.90;;;;;;5108287;27;20050;-66
2022/09/30 09:07:59;;;;;;;1999.90;999.90;;;12.20;99.90;;;;;;5088432;28;20043;-66
2022/09/30 09:10:30;;;;;;;1999.90;999.90;;;12.40;99.90;;;;;;5100558;27;20040;-66
2022/09/30 09:13:33;;;;;;;1999.90;999.90;;;12.60;99.90;;;;;;5097136;28;20097;-66
2022/09/30 09:16:16;;;;;;;1999.90;999.90;;;12.80;99.90;;;;;;5092266;28;20067;-66
2022/09/30 09:18:47;;;;;;;1999.90;999.90;;;12.90;99.90;;;;;;5089236;28;20044;-66
2022/09/30 09:21:30;;;;;;;1999.90;999.90;;;13.20;99.90;;;;;;5103747;27;20044;-66
2022/09/30 09:24:00;;;;;;;1999.90;999.90;;;13.30;99.90;;;;;;5106284;27;20031;-66
2022/09/30 09:26:29;;;;;;;1999.90;999.90;;;13.50;99.90;;;;;;5103634;28;20035;-66
2022/09/30 09:29:25;;;;;;;1999.90;999.90;;;13.40;99.90;;;;;;5097795;28;20043;-66
2022/09/30 09:31:53;;;;;;;1999.90;999.90;;;13.20;99.90;;;;;;5097270;28;20144;-66
2022/09/30 09:34:18;;;;;;;1999.90;999.90;;;13.20;99.90;;;;;;5102152;27;20075;-66
2022/09/30 09:36:57;;;;;;;1999.90;999.90;;;13.30;99.90;;;;;;5105931;27;20079;-66
2022/09/30 09:39:47;;;;;;;1999.90;999.90;;;13.50;99.90;;;;;;5091068;28;20044;-66
2022/09/30 09:42:27;;;;;;;1999.90;999.90;;;13.90;99.90;;;;;;5100078;28;20082;-66
2022/09/30 09:45:04;;;;;;;1999.90;999.90;;;14.70;99.90;;;;;;5079598;28;20114;-66
2022/09/30 09:47:31;;;;;;;1999.90;999.90;;;15.20;99.90;;;;;;5096473;27;20075;-66
2022/09/30 09:49:59;;;;;;;1999.90;999.90;;;15.50;99.90;;;;;;5104712;27;20036;-66
2022/09/30 09:53:03;;;;;;;1999.90;999.90;;;15.80;99.90;;;;;;5087484;28;20495;-66
2022/09/30 09:55:29;;;;;;;1999.90;999.90;;;16.20;99.90;;;;;;5104404;27;20489;-66
2022/09/30 09:58:10;;;;;;;1999.90;999.90;;;16.40;99.90;;;;;;5086329;28;20043;-66
2022/09/30 10:03:22;;;;;;;1999.90;999.90;;;16.40;99.90;;;;;;5111551;27;20045;-66
2022/09/30 10:06:14;;;;;;;1999.90;999.90;;;16.40;99.90;;;;;;5103614;27;20048;-66
2022/09/30 10:08:52;;;;;;;1999.90;999.90;;;16.40;99.90;;;;;;5088865;28;20051;-66
2022/09/30 10:11:21;;;;;;;1999.90;999.90;;;16.50;99.90;;;;;;5110287;27;20067;-67
2022/09/30 10:13:47;;;;;;;1999.90;999.90;;;16.50;99.90;;;;;;5098513;28;20035;-66
2022/09/30 10:16:27;;;;;;;1999.90;999.90;;;16.50;99.90;;;;;;5082598;28;20040;-66
2022/09/30 10:18:53;;;;;;;1999.90;999.90;;;16.50;99.90;;;;;;5093907;28;20045;-67
2022/09/30 10:21:24;;;;;;;1999.90;999.90;;;16.60;99.90;;;;;;5087459;28;20086;-66
2022/09/30 10:23:50;;;;;;;1999.90;999.90;;;16.80;99.90;;;;;;5091397;27;20050;-67
2022/09/30 10:26:25;;;;;;;1999.90;999.90;;;16.90;99.90;;;;;;5111378;27;20039;-66
2022/09/30 10:28:57;;;;;;;1999.90;999.90;;;17.10;99.90;;;;;;5101794;28;20136;-66
2022/09/30 10:31:30;;;;;;;1999.90;999.90;;;17.30;99.90;;;;;;5081694;28;20123;-67
2022/09/30 10:34:00;;;;;;;1999.90;999.90;;;17.20;99.90;;;;;;5085911;28;20043;-67
2022/09/30 10:36:34;;;;;;;1999.90;999.90;;;17.20;99.90;;;;;;5071744;28;20043;-66
2022/09/30 10:39:23;;;;;;;1999.90;999.90;;;17.20;99.90;;;;;;5109554;28;20175;-66
2022/09/30 10:42:06;;;;;;;1999.90;999.90;;;17.30;99.90;;;;;;5102869;28;20580;-66
2022/09/30 10:44:45;;;;;;;1999.90;999.90;;;17.50;99.90;;;;;;5099751;28;20438;-66
2022/09/30 10:47:16;;;;;;;1999.90;999.90;;;17.40;99.90;;;;;;5103123;28;20048;-66
2022/09/30 10:49:48;;;;;;;1999.90;999.90;;;17.50;99.90;;;;;;5114710;28;20035;-66
2022/09/30 10:52:24;;;;;;;1999.90;999.90;;;17.80;99.90;;;;;;5106955;28;20043;-66
2022/09/30 10:54:50;;;;;;;1999.90;999.90;;;17.90;99.90;;;;;;5087977;28;20257;-66
2022/09/30 10:57:24;;;;;;;1999.90;999.90;;;17.80;99.90;;;;;;5104919;28;20046;-66
2022/09/30 10:59:54;;;;;;;1999.90;999.90;;;17.80;99.90;;;;;;5105411;28;20036;-66
2022/09/30 11:02:29;;;;;;;1999.90;999.90;;;17.80;99.90;;;;;;5088812;28;20058;-66
2022/09/30 11:05:12;;;;;;;1999.90;999.90;;;17.90;99.90;;;;;;5105409;28;20043;-66
2022/09/30 11:08:16;;;;;;;1999.90;999.90;;;18.10;99.90;;;;;;5081165;28;20047;-67
2022/09/30 11:11:09;;;;;;;1999.90;999.90;;;18.20;99.90;;;;;;5094365;28;20122;-66
2022/09/30 11:13:41;;;;;;;1999.90;999.90;;;18.50;99.90;;;;;;5095274;28;20039;-66
2022/09/30 11:16:07;;;;;;;1999.90;999.90;;;18.60;99.90;;;;;;5103280;28;20035;-66
2022/09/30 11:19:10;;;;;;;1999.90;999.90;;;18.70;99.90;;;;;;5114549;28;20062;-66
2022/09/30 11:21:51;;;;;;;1999.90;999.90;;;18.80;99.90;;;;;;5121329;28;20496;-66
2022/09/30 11:24:31;;;;;;;1999.90;999.90;;;18.80;99.90;;;;;;5097016;28;20046;-66
2022/09/30 11:27:09;;;;;;;1999.90;999.90;;;18.70;99.90;;;;;;5108321;28;20433;-66
2022/09/30 11:30:16;;;;;;;1999.90;999.90;;;18.70;99.90;;;;;;5107011;28;20039;-66
2022/09/30 11:33:19;;;;;;;1999.90;999.90;;;18.50;99.90;;;;;;5048602;28;20053;-67
2022/09/30 11:36:09;;;;;;;1999.90;999.90;;;18.20;99.90;;;;;;5089024;28;20577;-66
2022/09/30 11:39:24;;;;;;;1999.90;999.90;;;18.30;99.90;;;;;;5109672;27;20039;-66
2022/09/30 11:42:25;;;;;;;1999.90;999.90;;;18.20;99.90;;;;;;5096791;27;20830;-66
2022/09/30 11:45:20;;;;;;;1999.90;999.90;;;18.10;99.90;;;;;;5067155;28;20048;-65
2022/09/30 11:48:02;;;;;;;1999.90;999.90;;;17.70;99.90;;;;;;5095678;27;20073;-66
2022/09/30 11:50:54;;;;;;;1999.90;999.90;;;17.70;99.90;;;;;;5110842;28;20043;-66
2022/09/30 11:53:33;;;;;;;1999.90;999.90;;;17.80;99.90;;;;;;5097209;28;20040;-66
2022/09/30 11:56:13;;;;;;;1999.90;999.90;;;18.00;99.90;;;;;;5087317;28;20465;-66
2022/09/30 11:58:46;;;;;;;1999.90;999.90;;;18.10;99.90;;;;;;5091204;28;20443;-66
2022/09/30 12:01:18;;;;;;;1999.90;999.90;;;18.20;99.90;;;;;;5093533;27;20046;-66
2022/09/30 12:03:56;;;;;;;1999.90;999.90;;;18.10;99.90;;;;;;5100429;27;20392;-66
2022/09/30 12:06:31;;;;;;;1999.90;999.90;;;17.90;99.90;;;;;;5110723;28;20560;-66
2022/09/30 12:09:06;;;;;;;1999.90;999.90;;;17.70;99.90;;;;;;5090771;28;20154;-66
2022/09/30 12:11:43;;;;;;;1999.90;999.90;;;17.50;99.90;;;;;;5110829;27;20035;-66
2022/09/30 12:14:19;;;;;;;1999.90;999.90;;;17.20;99.90;;;;;;5083473;28;20039;-66
2022/09/30 12:16:46;;;;;;;1999.90;999.90;;;17.20;99.90;;;;;;5102549;28;20047;-66
2022/09/30 12:19:30;;;;;;;1999.90;999.90;;;17.40;99.90;;;;;;5109218;28;20554;-66
2022/09/30 12:22:08;;;;;;;1999.90;999.90;;;17.60;99.90;;;;;;5110696;27;20032;-66
2022/09/30 12:24:40;;;;;;;1999.90;999.90;;;17.70;99.90;;;;;;5109504;28;20051;-66
2022/09/30 12:27:39;;;;;;;1999.90;999.90;;;17.70;99.90;;;;;;5111757;27;20384;-66
2022/09/30 12:30:17;;;;;;;1999.90;999.90;;;17.80;99.90;;;;;;5046910;28;20049;-66
2022/09/30 12:32:58;;;;;;;1999.90;999.90;;;17.70;99.90;;;;;;5033192;28;20128;-66
2022/09/30 12:35:51;;;;;;;1999.90;999.90;;;17.50;99.90;;;;;;5030587;28;20048;-66
2022/09/30 12:38:49;;;;;;;1999.90;999.90;;;17.40;99.90;;;;;;5047154;28;20423;-66
2022/09/30 12:41:37;;;;;;;1999.90;999.90;;;17.50;99.90;;;;;;5042215;28;20526;-66